createdAt,value
2022-07-29T00:01:00.339Z,15.96
2022-07-29T00:03:26.846Z,15.93
2022-07-29T00:05:54.125Z,15.92
2022-07-29T00:08:21.023Z,15.90
2022-07-29T00:10:47.561Z,15.90
2022-07-29T00:13:14.182Z,15.88
2022-07-29T00:15:40.745Z,15.83
2022-07-29T00:18:07.295Z,15.87
2022-07-29T00:20:33.762Z,15.84
2022-07-29T00:23:00.478Z,15.83
2022-07-29T00:25:27.114Z,15.85
2022-07-29T00:27:53.610Z,15.84
2022-07-29T00:30:20.291Z,15.80
2022-07-29T00:32:46.782Z,15.71
2022-07-29T00:35:31.567Z,15.70
2022-07-29T00:38:02.154Z,15.72
2022-07-29T00:40:28.775Z,15.68
2022-07-29T00:42:55.468Z,15.73
2022-07-29T00:45:23.071Z,15.76
2022-07-29T00:47:49.886Z,15.71
2022-07-29T00:50:16.640Z,15.71
2022-07-29T00:52:43.685Z,15.67
2022-07-29T00:55:13.362Z,15.61
2022-07-29T00:57:41.188Z,15.60
2022-07-29T01:00:10.464Z,15.65
2022-07-29T01:02:37.144Z,15.70
2022-07-29T01:05:05.181Z,15.69
2022-07-29T01:07:33.250Z,15.68
2022-07-29T01:10:00.151Z,15.68
2022-07-29T01:12:28.435Z,15.69
2022-07-29T01:14:56.556Z,15.63
2022-07-29T01:17:52.789Z,15.63
2022-07-29T01:20:43.272Z,15.62
2022-07-29T01:23:27.254Z,15.55
2022-07-29T01:26:20.270Z,15.63
2022-07-29T01:29:12.168Z,15.57
2022-07-29T01:32:00.588Z,15.54
2022-07-29T01:34:41.606Z,15.49
2022-07-29T01:37:18.706Z,15.55
2022-07-29T01:39:48.405Z,15.49
2022-07-29T01:42:33.952Z,15.53
2022-07-29T01:45:10.254Z,15.54
2022-07-29T01:47:55.257Z,15.55
2022-07-29T01:50:27.620Z,15.53
2022-07-29T01:52:59.438Z,15.49
2022-07-29T01:55:32.100Z,15.45
2022-07-29T01:58:04.138Z,15.47
2022-07-29T02:00:33.076Z,15.41
2022-07-29T02:03:01.840Z,15.38
2022-07-29T02:05:30.758Z,15.41
2022-07-29T02:08:00.142Z,15.40
2022-07-29T02:10:30.702Z,15.39
2022-07-29T02:13:01.613Z,15.37
2022-07-29T02:15:31.237Z,15.37
2022-07-29T02:18:16.593Z,15.37
2022-07-29T02:20:50.195Z,15.32
2022-07-29T02:23:21.484Z,15.30
2022-07-29T02:25:57.606Z,15.31
2022-07-29T02:28:28.406Z,15.27
2022-07-29T02:31:00.539Z,15.25
2022-07-29T02:33:30.792Z,15.20
2022-07-29T02:35:59.352Z,15.21
2022-07-29T02:38:47.052Z,15.22
2022-07-29T02:41:17.977Z,15.19
2022-07-29T02:43:48.273Z,15.17
2022-07-29T02:46:29.324Z,15.19
2022-07-29T02:49:10.325Z,15.19
2022-07-29T02:51:47.637Z,15.19
2022-07-29T02:54:47.054Z,15.14
2022-07-29T02:57:31.381Z,15.10
2022-07-29T03:00:04.332Z,15.11
2022-07-29T03:02:37.553Z,15.18
2022-07-29T03:05:07.533Z,15.12
2022-07-29T03:07:36.478Z,15.09
2022-07-29T03:10:03.865Z,15.12
2022-07-29T03:12:31.489Z,15.12
2022-07-29T03:15:00.082Z,15.15
2022-07-29T03:17:26.949Z,15.21
2022-07-29T03:19:54.084Z,15.21
2022-07-29T03:22:20.846Z,15.19
2022-07-29T03:24:47.404Z,15.20
2022-07-29T03:27:14.151Z,15.15
2022-07-29T03:29:40.543Z,15.15
2022-07-29T03:32:10.067Z,15.14
2022-07-29T03:34:38.864Z,15.16
2022-07-29T03:37:07.077Z,15.18
2022-07-29T03:39:39.485Z,15.17
2022-07-29T03:42:08.868Z,15.17
2022-07-29T03:44:36.179Z,15.16
2022-07-29T03:47:03.810Z,15.09
2022-07-29T03:49:32.208Z,15.09
2022-07-29T03:51:59.336Z,15.14
2022-07-29T03:54:25.849Z,15.15
2022-07-29T03:56:55.128Z,15.13
2022-07-29T03:59:23.451Z,15.08
2022-07-29T04:01:51.061Z,15.11
2022-07-29T04:04:18.071Z,15.11
2022-07-29T04:06:46.690Z,15.09
2022-07-29T04:09:15.105Z,15.07
2022-07-29T04:11:57.039Z,15.02
2022-07-29T04:14:30.157Z,15.09
2022-07-29T04:16:56.594Z,15.06
2022-07-29T04:19:23.521Z,15.00
2022-07-29T04:21:50.090Z,15.03
2022-07-29T04:24:17.741Z,15.06
2022-07-29T04:26:44.668Z,15.09
2022-07-29T04:29:12.828Z,15.11
2022-07-29T04:31:39.385Z,15.09
2022-07-29T04:34:06.295Z,15.07
2022-07-29T04:36:33.245Z,15.06
2022-07-29T04:38:59.839Z,15.10
2022-07-29T04:41:33.445Z,15.15
2022-07-29T04:44:01.947Z,15.25
2022-07-29T04:46:28.902Z,15.22
2022-07-29T04:48:55.491Z,15.22
2022-07-29T04:51:22.059Z,15.21
2022-07-29T04:53:48.912Z,15.22
2022-07-29T04:56:15.379Z,15.25
2022-07-29T04:58:41.886Z,15.17
2022-07-29T05:01:08.592Z,15.23
2022-07-29T05:03:35.141Z,15.26
2022-07-29T05:06:01.542Z,15.29
2022-07-29T05:08:28.116Z,15.35
2022-07-29T05:10:54.641Z,15.34
2022-07-29T05:13:21.217Z,15.39
2022-07-29T05:15:47.956Z,15.39
2022-07-29T05:18:15.013Z,15.31
2022-07-29T05:20:41.771Z,15.39
2022-07-29T05:23:08.247Z,15.39
2022-07-29T05:25:42.046Z,15.38
2022-07-29T05:28:10.638Z,15.39
2022-07-29T05:30:37.313Z,15.42
2022-07-29T05:33:03.898Z,15.45
2022-07-29T05:35:30.320Z,15.48
2022-07-29T05:37:56.759Z,15.46
2022-07-29T05:40:23.288Z,15.47
2022-07-29T05:42:49.854Z,15.54
2022-07-29T05:45:16.438Z,15.51
2022-07-29T05:47:42.974Z,15.52
2022-07-29T05:50:09.763Z,15.50
2022-07-29T05:52:36.397Z,15.52
2022-07-29T05:55:05.217Z,15.55
2022-07-29T05:57:32.145Z,15.62
2022-07-29T05:59:59.154Z,15.62
2022-07-29T06:02:25.796Z,15.69
2022-07-29T06:04:52.316Z,15.69
2022-07-29T06:07:18.916Z,15.73
2022-07-29T06:09:45.428Z,15.72
2022-07-29T06:12:11.885Z,15.79
2022-07-29T06:14:39.148Z,15.90
2022-07-29T06:17:06.539Z,15.94
2022-07-29T06:19:35.434Z,15.98
2022-07-29T06:22:02.063Z,16.01
2022-07-29T06:24:28.739Z,16.02
2022-07-29T06:26:55.437Z,16.05
2022-07-29T06:29:21.910Z,16.02
2022-07-29T06:31:48.331Z,16.07
2022-07-29T06:34:15.071Z,16.22
2022-07-29T06:36:41.805Z,16.31
2022-07-29T06:39:09.331Z,16.39
2022-07-29T06:41:39.197Z,16.57
2022-07-29T06:44:05.758Z,16.63
2022-07-29T06:46:33.154Z,16.69
2022-07-29T06:49:00.005Z,16.66
2022-07-29T06:51:26.574Z,16.67
2022-07-29T06:53:59.397Z,16.74
2022-07-29T06:56:38.514Z,16.78
2022-07-29T06:59:07.230Z,16.79
2022-07-29T07:01:33.769Z,16.82
2022-07-29T07:04:00.257Z,16.90
2022-07-29T07:06:26.959Z,16.98
2022-07-29T07:08:53.377Z,17.07
2022-07-29T07:11:20.127Z,17.19
2022-07-29T07:13:46.544Z,17.36
2022-07-29T07:16:13.309Z,17.53
2022-07-29T07:18:39.824Z,17.66
2022-07-29T07:21:06.633Z,17.73
2022-07-29T07:23:33.236Z,17.82
2022-07-29T07:25:59.825Z,17.88
2022-07-29T07:28:26.316Z,17.98
2022-07-29T07:30:53.189Z,18.22
2022-07-29T07:33:19.794Z,18.61
2022-07-29T07:35:46.433Z,18.97
2022-07-29T07:38:13.250Z,18.97
2022-07-29T07:40:39.762Z,19.11
2022-07-29T07:43:06.431Z,19.32
2022-07-29T07:45:38.313Z,19.50
2022-07-29T07:48:05.726Z,19.65
2022-07-29T07:50:32.386Z,19.82
2022-07-29T07:53:03.064Z,20.02
2022-07-29T07:55:42.448Z,20.27
2022-07-29T07:58:16.261Z,20.44
2022-07-29T08:00:42.771Z,20.53
2022-07-29T08:03:16.808Z,20.49
2022-07-29T08:05:44.234Z,20.60
2022-07-29T08:08:10.750Z,20.65
2022-07-29T08:10:55.856Z,20.79
2022-07-29T08:13:24.163Z,20.87
2022-07-29T08:16:11.933Z,21.08
2022-07-29T08:18:39.915Z,21.14
2022-07-29T08:21:06.870Z,20.96
2022-07-29T08:23:45.515Z,20.78
2022-07-29T08:26:15.386Z,20.49
2022-07-29T08:28:46.797Z,20.47
2022-07-29T08:31:14.264Z,20.31
2022-07-29T08:33:40.802Z,20.29
2022-07-29T08:36:07.452Z,20.41
2022-07-29T08:38:34.236Z,20.30
2022-07-29T08:41:04.448Z,20.18
2022-07-29T08:43:31.008Z,20.15
2022-07-29T08:45:57.939Z,20.00
2022-07-29T08:48:25.618Z,20.07
2022-07-29T08:50:57.005Z,19.94
2022-07-29T08:53:30.788Z,19.87
2022-07-29T08:55:59.262Z,19.75
2022-07-29T08:58:27.668Z,19.90
2022-07-29T09:00:56.006Z,19.94
2022-07-29T09:03:26.784Z,20.19
2022-07-29T09:05:54.015Z,20.17
2022-07-29T09:08:21.053Z,20.19
2022-07-29T09:10:47.952Z,20.25
2022-07-29T09:13:14.595Z,20.19
2022-07-29T09:15:41.257Z,20.15
2022-07-29T09:18:07.877Z,20.34
2022-07-29T09:21:12.265Z,20.48
2022-07-29T09:23:40.601Z,20.61
2022-07-29T09:26:07.266Z,20.57
2022-07-29T09:28:34.021Z,20.33
2022-07-29T09:31:00.512Z,20.05
2022-07-29T09:33:40.128Z,20.09
2022-07-29T09:36:08.923Z,20.28
2022-07-29T09:38:37.549Z,20.36
2022-07-29T09:41:06.550Z,20.35
2022-07-29T09:43:34.657Z,20.26
2022-07-29T09:46:14.730Z,20.28
2022-07-29T09:48:41.543Z,20.22
2022-07-29T09:51:25.417Z,20.21
2022-07-29T09:53:55.226Z,20.29
2022-07-29T09:56:39.005Z,20.23
2022-07-29T09:59:09.571Z,20.33
2022-07-29T10:01:36.932Z,20.41
2022-07-29T10:04:04.014Z,20.51
2022-07-29T10:06:30.623Z,20.53
2022-07-29T10:09:09.237Z,20.55
2022-07-29T10:11:49.573Z,20.47
2022-07-29T10:14:16.878Z,20.30
2022-07-29T10:16:43.843Z,20.33
2022-07-29T10:19:10.600Z,20.54
2022-07-29T10:21:38.734Z,20.81
2022-07-29T10:24:06.910Z,20.68
2022-07-29T10:26:41.892Z,20.74
2022-07-29T10:29:08.335Z,20.92
2022-07-29T10:31:57.405Z,21.04
2022-07-29T10:34:45.683Z,21.02
2022-07-29T10:37:36.017Z,21.15
2022-07-29T10:40:34.624Z,21.19
2022-07-29T10:43:21.867Z,20.78
2022-07-29T10:45:50.282Z,20.83
2022-07-29T10:48:19.658Z,21.08
2022-07-29T10:51:06.953Z,21.29
2022-07-29T10:53:51.515Z,21.49
2022-07-29T10:56:28.873Z,21.39
2022-07-29T10:59:27.144Z,21.43
2022-07-29T11:02:35.416Z,21.32
2022-07-29T11:04:52.274Z,21.38
2022-07-29T11:07:18.831Z,21.31
2022-07-29T11:10:14.448Z,21.28
2022-07-29T11:12:44.170Z,21.33
2022-07-29T11:15:22.421Z,21.19
2022-07-29T11:17:54.638Z,20.95
2022-07-29T11:20:37.912Z,21.06
2022-07-29T11:26:21.228Z,21.56
2022-07-29T11:29:18.057Z,21.89
2022-07-29T11:31:49.292Z,21.95
2022-07-29T11:34:27.974Z,21.96
2022-07-29T11:37:17.720Z,22.05
2022-07-29T11:40:09.842Z,21.69
2022-07-29T11:42:36.759Z,21.59
2022-07-29T11:45:42.697Z,21.46
2022-07-29T11:48:29.099Z,21.31
2022-07-29T11:50:48.536Z,21.36
2022-07-29T11:53:16.197Z,21.52
2022-07-29T11:55:51.514Z,21.83
2022-07-29T11:58:25.090Z,21.51
2022-07-29T12:00:52.788Z,21.57
2022-07-29T12:03:32.816Z,21.31
2022-07-29T12:06:01.534Z,21.60
2022-07-29T12:08:28.624Z,21.47
2022-07-29T12:10:55.188Z,21.52
2022-07-29T12:13:22.383Z,21.74
2022-07-29T12:16:00.121Z,21.88
2022-07-29T12:18:28.792Z,22.02
2022-07-29T12:21:05.600Z,22.03
2022-07-29T12:23:34.409Z,22.16
2022-07-29T12:26:04.704Z,22.20
2022-07-29T12:28:38.557Z,22.05
2022-07-29T12:31:05.960Z,21.98
2022-07-29T12:33:32.769Z,22.10
2022-07-29T12:36:07.621Z,22.26
2022-07-29T12:38:36.758Z,22.39
2022-07-29T12:41:04.673Z,22.34
2022-07-29T12:43:31.509Z,22.45
2022-07-29T12:45:58.906Z,22.33
2022-07-29T12:48:42.772Z,22.32
2022-07-29T12:51:12.421Z,22.37
2022-07-29T12:53:39.369Z,22.39
2022-07-29T12:56:20.749Z,22.20
2022-07-29T12:58:53.178Z,22.26
2022-07-29T13:01:21.155Z,22.42
2022-07-29T13:03:56.823Z,22.43
2022-07-29T13:06:51.136Z,22.30
2022-07-29T13:09:24.002Z,22.54
2022-07-29T13:11:54.428Z,22.71
2022-07-29T13:14:44.762Z,22.91
2022-07-29T13:17:19.057Z,23.03
2022-07-29T13:19:53.916Z,23.11
2022-07-29T13:22:22.900Z,23.18
2022-07-29T13:24:55.023Z,23.24
2022-07-29T13:27:23.856Z,23.00
2022-07-29T13:29:53.865Z,23.29
2022-07-29T13:32:28.630Z,23.33
2022-07-29T13:35:04.928Z,23.49
2022-07-29T13:37:34.857Z,23.61
2022-07-29T13:40:04.002Z,23.51
2022-07-29T13:42:30.704Z,23.62
2022-07-29T13:44:57.659Z,23.70
2022-07-29T13:47:32.592Z,23.65
2022-07-29T13:50:02.270Z,23.44
2022-07-29T13:52:29.030Z,23.59
2022-07-29T13:54:55.461Z,23.49
2022-07-29T13:57:21.887Z,23.33
2022-07-29T13:59:53.723Z,23.57
2022-07-29T14:02:20.923Z,23.48
2022-07-29T14:04:47.427Z,23.45
2022-07-29T14:07:16.386Z,23.38
2022-07-29T14:09:43.220Z,23.36
2022-07-29T14:12:10.040Z,23.56
2022-07-29T14:14:37.550Z,23.56
2022-07-29T14:17:04.994Z,23.56
2022-07-29T14:19:33.169Z,23.59
2022-07-29T14:22:00.171Z,23.63
2022-07-29T14:24:27.150Z,23.58
2022-07-29T14:26:53.625Z,23.50
2022-07-29T14:29:20.182Z,23.53
2022-07-29T14:31:47.036Z,23.32
2022-07-29T14:34:13.532Z,23.47
2022-07-29T14:36:40.343Z,23.57
2022-07-29T14:39:06.808Z,23.43
2022-07-29T14:41:33.737Z,23.58
2022-07-29T14:44:03.045Z,23.66
2022-07-29T14:46:29.763Z,23.74
2022-07-29T14:48:56.698Z,23.62
2022-07-29T14:51:23.226Z,23.67
2022-07-29T14:53:49.830Z,23.88
2022-07-29T14:56:35.921Z,23.94
2022-07-29T14:59:02.851Z,24.06
2022-07-29T15:01:30.060Z,24.01
2022-07-29T15:03:59.656Z,24.02
2022-07-29T15:06:27.121Z,23.99
2022-07-29T15:08:53.513Z,24.12
2022-07-29T15:11:19.977Z,24.05
2022-07-29T15:13:46.710Z,24.16
2022-07-29T15:16:13.250Z,24.20
2022-07-29T15:18:39.962Z,24.45
2022-07-29T15:21:07.882Z,24.66
2022-07-29T15:23:37.060Z,24.73
2022-07-29T15:26:05.034Z,24.53
2022-07-29T15:28:31.578Z,24.63
2022-07-29T15:30:58.478Z,24.65
2022-07-29T15:33:24.982Z,24.60
2022-07-29T15:35:51.531Z,24.69
2022-07-29T15:38:18.280Z,24.55
2022-07-29T15:40:45.337Z,24.49
2022-07-29T15:43:12.529Z,24.34
2022-07-29T15:46:02.616Z,24.29
2022-07-29T15:48:29.513Z,24.30
2022-07-29T15:50:56.232Z,24.17
2022-07-29T15:53:22.857Z,24.14
2022-07-29T15:55:49.461Z,24.16
2022-07-29T15:58:15.954Z,24.11
2022-07-29T16:00:42.544Z,24.03
2022-07-29T16:03:08.974Z,23.77
2022-07-29T16:05:35.425Z,23.71
2022-07-29T16:08:04.148Z,23.71
2022-07-29T16:10:30.585Z,23.70
2022-07-29T16:12:57.445Z,23.80
2022-07-29T16:15:24.254Z,23.80
2022-07-29T16:17:50.749Z,23.78
2022-07-29T16:20:17.658Z,23.66
2022-07-29T16:22:44.310Z,23.66
2022-07-29T16:25:10.836Z,23.59
2022-07-29T16:27:38.294Z,23.48
2022-07-29T16:30:06.059Z,23.48
2022-07-29T16:32:34.913Z,23.44
2022-07-29T16:35:02.709Z,23.30
2022-07-29T16:37:33.422Z,23.27
2022-07-29T16:40:00.213Z,23.25
2022-07-29T16:42:45.504Z,23.15
2022-07-29T16:45:13.566Z,23.23
2022-07-29T16:47:42.622Z,23.12
2022-07-29T16:50:09.358Z,23.01
2022-07-29T16:52:37.515Z,22.98
2022-07-29T16:55:04.695Z,23.01
2022-07-29T16:57:31.204Z,23.04
2022-07-29T16:59:57.817Z,23.04
2022-07-29T17:02:24.323Z,23.06
2022-07-29T17:04:51.316Z,22.99
2022-07-29T17:07:17.755Z,23.06
2022-07-29T17:09:44.244Z,23.02
2022-07-29T17:12:10.754Z,23.01
2022-07-29T17:14:38.239Z,22.89
2022-07-29T17:17:05.593Z,22.90
2022-07-29T17:19:43.217Z,22.87
2022-07-29T17:22:14.324Z,22.77
2022-07-29T17:24:42.952Z,22.77
2022-07-29T17:27:10.343Z,22.83
2022-07-29T17:29:37.314Z,22.88
2022-07-29T17:32:04.118Z,22.76
2022-07-29T17:34:36.105Z,22.68
2022-07-29T17:37:03.205Z,22.70
2022-07-29T17:39:29.809Z,22.64
2022-07-29T17:41:57.849Z,22.58
2022-07-29T17:44:27.441Z,22.43
2022-07-29T17:46:54.001Z,22.52
2022-07-29T17:49:20.743Z,22.36
2022-07-29T17:51:47.367Z,22.39
2022-07-29T17:54:14.166Z,22.38
2022-07-29T17:56:41.473Z,22.37
2022-07-29T17:59:10.013Z,22.39
2022-07-29T18:01:38.274Z,22.36
2022-07-29T18:04:05.022Z,22.37
2022-07-29T18:06:31.566Z,22.35
2022-07-29T18:09:00.852Z,22.36
2022-07-29T18:11:27.634Z,22.36
2022-07-29T18:13:54.137Z,22.29
2022-07-29T18:16:21.885Z,22.28
2022-07-29T18:18:48.599Z,22.23
2022-07-29T18:21:15.081Z,22.17
2022-07-29T18:23:42.316Z,22.06
2022-07-29T18:26:09.774Z,22.11
2022-07-29T18:28:36.289Z,22.09
2022-07-29T18:31:02.906Z,21.99
2022-07-29T18:33:29.497Z,21.79
2022-07-29T18:36:11.195Z,21.77
2022-07-29T18:38:39.852Z,21.67
2022-07-29T18:41:08.419Z,21.59
2022-07-29T18:43:36.177Z,21.55
2022-07-29T18:46:02.750Z,21.46
2022-07-29T18:48:29.293Z,21.34
2022-07-29T18:50:55.934Z,21.30
2022-07-29T18:53:25.112Z,21.30
2022-07-29T18:55:51.723Z,21.17
2022-07-29T18:58:18.187Z,21.05
2022-07-29T19:00:44.727Z,20.92
2022-07-29T19:03:11.425Z,20.93
2022-07-29T19:05:38.232Z,20.83
2022-07-29T19:08:04.937Z,20.69
2022-07-29T19:10:32.533Z,20.68
2022-07-29T19:12:59.415Z,20.60
2022-07-29T19:15:26.081Z,20.46
2022-07-29T19:17:52.568Z,20.42
2022-07-29T19:20:19.209Z,20.37
2022-07-29T19:22:46.455Z,20.38
2022-07-29T19:25:13.325Z,20.32
2022-07-29T19:27:41.788Z,20.31
2022-07-29T19:30:09.602Z,20.27
2022-07-29T19:32:36.535Z,20.19
2022-07-29T19:35:22.031Z,20.15
2022-07-29T19:37:48.666Z,20.07
2022-07-29T19:40:16.219Z,20.00
2022-07-29T19:42:43.480Z,19.93
2022-07-29T19:45:11.657Z,19.88
2022-07-29T19:47:38.212Z,19.87
2022-07-29T19:50:05.446Z,19.81
2022-07-29T19:52:32.129Z,19.78
2022-07-29T19:54:59.829Z,19.63
2022-07-29T19:57:28.496Z,19.58
2022-07-29T20:00:11.134Z,19.53
2022-07-29T20:02:39.343Z,19.57
2022-07-29T20:05:06.085Z,19.53
2022-07-29T20:07:32.589Z,19.50
2022-07-29T20:09:59.283Z,19.50
2022-07-29T20:12:25.926Z,19.35
2022-07-29T20:14:53.073Z,19.32
2022-07-29T20:17:25.299Z,19.23
2022-07-29T20:19:52.883Z,19.14
2022-07-29T20:22:20.800Z,19.17
2022-07-29T20:24:48.409Z,19.00
2022-07-29T20:27:14.963Z,18.99
2022-07-29T20:29:41.510Z,19.02
2022-07-29T20:32:08.082Z,18.98
2022-07-29T20:34:34.625Z,18.86
2022-07-29T20:37:02.744Z,18.90
2022-07-29T20:39:29.422Z,18.78
2022-07-29T20:41:56.190Z,18.74
2022-07-29T20:44:24.255Z,18.76
2022-07-29T20:46:50.895Z,18.75
2022-07-29T20:49:17.477Z,18.71
2022-07-29T20:51:44.315Z,18.69
2022-07-29T20:54:11.081Z,18.64
2022-07-29T20:56:38.114Z,18.62
2022-07-29T20:59:04.843Z,18.58
2022-07-29T21:01:31.334Z,18.54
2022-07-29T21:03:57.965Z,18.54
2022-07-29T21:06:24.452Z,18.46
2022-07-29T21:08:50.842Z,18.48
2022-07-29T21:11:17.828Z,18.41
2022-07-29T21:14:04.440Z,18.44
2022-07-29T21:16:33.293Z,18.39
2022-07-29T21:18:59.797Z,18.30
2022-07-29T21:21:26.858Z,18.19
2022-07-29T21:23:53.478Z,18.17
2022-07-29T21:26:20.109Z,18.16
2022-07-29T21:28:46.627Z,18.16
2022-07-29T21:31:17.441Z,18.16
2022-07-29T21:33:48.601Z,18.16
2022-07-29T21:36:46.391Z,18.10
2022-07-29T21:39:06.947Z,18.05
2022-07-29T21:41:34.428Z,18.08
2022-07-29T21:44:01.394Z,17.98
2022-07-29T21:46:28.150Z,17.85
2022-07-29T21:48:55.046Z,17.92
2022-07-29T21:51:21.519Z,17.97
2022-07-29T21:53:52.418Z,17.90
2022-07-29T21:56:21.254Z,17.92
2022-07-29T21:58:50.025Z,17.89
2022-07-29T22:01:16.515Z,17.87
2022-07-29T22:03:45.797Z,17.86
2022-07-29T22:06:17.868Z,17.84
2022-07-29T22:08:45.633Z,17.85
2022-07-29T22:11:13.479Z,17.80
2022-07-29T22:13:41.547Z,17.79
2022-07-29T22:16:10.042Z,17.77
2022-07-29T22:18:36.584Z,17.76
2022-07-29T22:21:03.127Z,17.66
2022-07-29T22:23:29.537Z,17.66
2022-07-29T22:25:56.082Z,17.66
2022-07-29T22:28:22.605Z,17.67
2022-07-29T22:30:49.299Z,17.72
2022-07-29T22:33:17.810Z,17.72
2022-07-29T22:35:45.718Z,17.57
2022-07-29T22:38:15.257Z,17.66
2022-07-29T22:40:41.704Z,17.68
2022-07-29T22:43:08.203Z,17.69
2022-07-29T22:45:34.857Z,17.65
2022-07-29T22:48:01.434Z,17.58
2022-07-29T22:50:29.763Z,17.54
2022-07-29T22:52:56.249Z,17.54
2022-07-29T22:55:22.875Z,17.55
2022-07-29T22:57:49.341Z,17.56
2022-07-29T23:00:16.254Z,17.61
2022-07-29T23:02:42.773Z,17.64
2022-07-29T23:05:10.457Z,17.63
2022-07-29T23:07:36.973Z,17.52
2022-07-29T23:10:04.871Z,17.53
2022-07-29T23:12:31.505Z,17.48
2022-07-29T23:14:57.986Z,17.47
2022-07-29T23:17:24.480Z,17.44
2022-07-29T23:19:51.095Z,17.42
2022-07-29T23:22:18.456Z,17.38
2022-07-29T23:24:45.391Z,17.30
2022-07-29T23:27:11.840Z,17.31
2022-07-29T23:29:38.303Z,17.30
2022-07-29T23:32:05.225Z,17.30
2022-07-29T23:34:31.864Z,17.31
2022-07-29T23:36:59.207Z,17.32
2022-07-29T23:39:25.839Z,17.25
2022-07-29T23:41:52.393Z,17.19
2022-07-29T23:44:18.859Z,17.12
2022-07-29T23:46:45.453Z,17.08
2022-07-29T23:49:12.350Z,17.01
2022-07-29T23:51:38.854Z,17.02
2022-07-29T23:54:05.410Z,16.97
2022-07-29T23:56:31.879Z,16.94
2022-07-29T23:58:58.825Z,16.91
